sensor_id;sensor_type;location;lat;lon;timestamp;pressure;altitude;pressure_sealevel;temperature;humidity
31585;BME280;18191;51.288;12.390;2023-02-15T00:01:48;49199.81;;;-144.47;93.29
31585;BME280;18191;51.288;12.390;2023-02-15T00:06:39;49175.94;;;-144.47;93.34
31585;BME280;18191;51.288;12.390;2023-02-15T00:11:29;49175.94;;;-144.47;93.65
31585;BME280;18191;51.288;12.390;2023-02-15T00:16:40;49207.78;;;-144.47;94.47
31585;BME280;18191;51.288;12.390;2023-02-15T00:21:31;49175.94;;;-144.47;94.00
31585;BME280;18191;51.288;12.390;2023-02-15T00:26:21;49160.03;;;-144.47;94.08
31585;BME280;18191;51.288;12.390;2023-02-15T00:31:12;49207.78;;;-144.47;94.32
31585;BME280;18191;51.288;12.390;2023-02-15T00:36:03;49179.91;;;-144.47;95.04
31585;BME280;18191;51.288;12.390;2023-02-15T00:40:53;49142.13;;;-144.47;94.45
31585;BME280;18191;51.288;12.390;2023-02-15T00:45:44;49175.94;;;-144.47;94.00
31585;BME280;18191;51.288;12.390;2023-02-15T00:50:35;49166.00;;;-144.47;94.17
31585;BME280;18191;51.288;12.390;2023-02-15T00:55:25;49156.03;;;-144.47;94.64
31585;BME280;18191;51.288;12.390;2023-02-15T01:00:15;49167.97;;;-144.47;95.13
31585;BME280;18191;51.288;12.390;2023-02-15T01:05:05;49164.00;;;-144.47;95.25
31585;BME280;18191;51.288;12.390;2023-02-15T01:09:55;49211.75;;;-144.47;95.13
31585;BME280;18191;51.288;12.390;2023-02-15T01:14:46;49164.00;;;-144.47;95.12
31585;BME280;18191;51.288;12.390;2023-02-15T01:19:36;49183.91;;;-144.47;94.69
31585;BME280;18191;51.288;12.390;2023-02-15T01:24:26;49171.97;;;-144.47;94.87
31585;BME280;18191;51.288;12.390;2023-02-15T01:29:16;49156.03;;;-144.47;94.88
31585;BME280;18191;51.288;12.390;2023-02-15T01:34:06;49187.88;;;-144.47;94.99
31585;BME280;18191;51.288;12.390;2023-02-15T01:38:56;49160.03;;;-144.47;95.19
31585;BME280;18191;51.288;12.390;2023-02-15T01:43:48;49207.78;;;-144.47;95.15
31585;BME280;18191;51.288;12.390;2023-02-15T01:48:50;49195.84;;;-144.47;95.55
31585;BME280;18191;51.288;12.390;2023-02-15T01:53:45;49195.84;;;-144.47;95.49
31585;BME280;18191;51.288;12.390;2023-02-15T01:58:37;49181.91;;;-144.47;95.49
31585;BME280;18191;51.288;12.390;2023-02-15T02:03:36;49183.91;;;-144.47;95.12
31585;BME280;18191;51.288;12.390;2023-02-15T02:08:28;49148.09;;;-144.47;95.49
31585;BME280;18191;51.288;12.390;2023-02-15T02:13:19;49193.84;;;-144.47;95.61
31585;BME280;18191;51.288;12.390;2023-02-15T02:23:16;49183.91;;;-144.47;95.64
31585;BME280;18191;51.288;12.390;2023-02-15T02:38:37;49152.06;;;-144.47;95.84
31585;BME280;18191;51.288;12.390;2023-02-15T02:43:33;49171.97;;;-144.47;95.75
31585;BME280;18191;51.288;12.390;2023-02-15T02:48:27;49164.00;;;-144.47;95.73
31585;BME280;18191;51.288;12.390;2023-02-15T02:53:18;49207.78;;;-144.47;95.54
31585;BME280;18191;51.288;12.390;2023-02-15T03:03:00;49209.75;;;-144.47;95.74
31585;BME280;18191;51.288;12.390;2023-02-15T03:07:54;49164.00;;;-144.47;96.09
31585;BME280;18191;51.288;12.390;2023-02-15T03:12:46;49175.94;;;-144.47;95.85
31585;BME280;18191;51.288;12.390;2023-02-15T03:17:44;49177.94;;;-144.47;95.58
31585;BME280;18191;51.288;12.390;2023-02-15T03:22:49;49203.78;;;-144.47;95.84
31585;BME280;18191;51.288;12.390;2023-02-15T03:27:42;49179.91;;;-144.47;96.06
31585;BME280;18191;51.288;12.390;2023-02-15T03:32:34;49179.91;;;-144.47;95.57
31585;BME280;18191;51.288;12.390;2023-02-15T03:37:36;49203.78;;;-144.47;95.61
31585;BME280;18191;51.288;12.390;2023-02-15T03:42:30;49164.00;;;-144.47;95.73
31585;BME280;18191;51.288;12.390;2023-02-15T03:47:26;49169.97;;;-144.47;96.05
31585;BME280;18191;51.288;12.390;2023-02-15T03:52:18;49116.25;;;-144.47;95.99
31585;BME280;18191;51.288;12.390;2023-02-15T03:57:30;49215.72;;;-144.47;96.01
31585;BME280;18191;51.288;12.390;2023-02-15T04:02:47;49160.03;;;-144.47;95.83
31585;BME280;18191;51.288;12.390;2023-02-15T04:07:39;49167.97;;;-144.47;95.95
31585;BME280;18191;51.288;12.390;2023-02-15T04:12:30;49171.97;;;-144.47;95.60
31585;BME280;18191;51.288;12.390;2023-02-15T04:17:20;49160.03;;;-144.47;95.48
31585;BME280;18191;51.288;12.390;2023-02-15T04:22:10;49171.97;;;-144.47;95.93
31585;BME280;18191;51.288;12.390;2023-02-15T04:27:19;49152.06;;;-144.47;95.52
31585;BME280;18191;51.288;12.390;2023-02-15T04:32:09;49227.66;;;-144.47;95.49
31585;BME280;18191;51.288;12.390;2023-02-15T04:37:00;49171.97;;;-144.47;95.84
31585;BME280;18191;51.288;12.390;2023-02-15T04:41:50;49193.84;;;-144.47;95.82
31585;BME280;18191;51.288;12.390;2023-02-15T04:46:40;49140.13;;;-144.47;95.98
31585;BME280;18191;51.288;12.390;2023-02-15T04:51:32;49203.78;;;-144.47;96.21
31585;BME280;18191;51.288;12.390;2023-02-15T04:56:22;49144.09;;;-144.47;96.24
31585;BME280;18191;51.288;12.390;2023-02-15T05:01:12;49185.88;;;-144.47;96.06
31585;BME280;18191;51.288;12.390;2023-02-15T05:06:03;49185.88;;;-144.47;96.24
31585;BME280;18191;51.288;12.390;2023-02-15T05:10:54;49179.91;;;-144.47;96.25
31585;BME280;18191;51.288;12.390;2023-02-15T05:15:50;49175.94;;;-144.47;96.27
31585;BME280;18191;51.288;12.390;2023-02-15T05:20:41;49156.03;;;-144.47;96.55
31585;BME280;18191;51.288;12.390;2023-02-15T05:25:31;49187.88;;;-144.47;96.37
31585;BME280;18191;51.288;12.390;2023-02-15T05:30:40;49152.06;;;-144.47;96.34
31585;BME280;18191;51.288;12.390;2023-02-15T05:35:31;49167.97;;;-144.47;96.07
31585;BME280;18191;51.288;12.390;2023-02-15T05:40:21;49164.00;;;-144.47;96.44
31585;BME280;18191;51.288;12.390;2023-02-15T05:45:11;49154.06;;;-144.47;96.58
31585;BME280;18191;51.288;12.390;2023-02-15T05:50:01;49128.19;;;-144.47;96.50
31585;BME280;18191;51.288;12.390;2023-02-15T05:54:51;49187.88;;;-144.47;96.65
31585;BME280;18191;51.288;12.390;2023-02-15T05:59:42;49201.81;;;-144.47;96.77
31585;BME280;18191;51.288;12.390;2023-02-15T06:04:32;49156.03;;;-144.47;96.39
31585;BME280;18191;51.288;12.390;2023-02-15T06:09:22;49193.84;;;-144.47;96.42
31585;BME280;18191;51.288;12.390;2023-02-15T06:14:12;49175.94;;;-144.47;96.63
31585;BME280;18191;51.288;12.390;2023-02-15T06:19:02;49169.97;;;-144.47;96.76
31585;BME280;18191;51.288;12.390;2023-02-15T06:23:53;49140.13;;;-144.47;97.02
31585;BME280;18191;51.288;12.390;2023-02-15T06:28:43;49136.16;;;-144.47;96.86
31585;BME280;18191;51.288;12.390;2023-02-15T06:33:33;49179.91;;;-144.47;96.99
31585;BME280;18191;51.288;12.390;2023-02-15T06:38:23;49173.94;;;-144.47;97.08
31585;BME280;18191;51.288;12.390;2023-02-15T06:43:14;49160.03;;;-144.47;97.05
31585;BME280;18191;51.288;12.390;2023-02-15T06:48:04;49167.97;;;-144.47;96.76
31585;BME280;18191;51.288;12.390;2023-02-15T06:52:57;49173.94;;;-144.47;96.76
31585;BME280;18191;51.288;12.390;2023-02-15T06:57:47;49171.97;;;-144.47;96.47
31585;BME280;18191;51.288;12.390;2023-02-15T07:02:37;49175.94;;;-144.47;96.52
31585;BME280;18191;51.288;12.390;2023-02-15T07:07:27;49187.88;;;-144.47;96.37
31585;BME280;18191;51.288;12.390;2023-02-15T07:12:17;49175.94;;;-144.47;96.33
31585;BME280;18191;51.288;12.390;2023-02-15T07:17:26;49173.94;;;-144.47;96.22
31585;BME280;18191;51.288;12.390;2023-02-15T07:22:21;49215.72;;;-144.47;96.21
31585;BME280;18191;51.288;12.390;2023-02-15T07:27:11;49173.94;;;-144.47;96.23
31585;BME280;18191;51.288;12.390;2023-02-15T07:32:02;49195.84;;;-144.47;95.67
31585;BME280;18191;51.288;12.390;2023-02-15T07:36:52;49164.00;;;-144.47;95.63
31585;BME280;18191;51.288;12.390;2023-02-15T07:41:43;49173.94;;;-144.47;95.58
31585;BME280;18191;51.288;12.390;2023-02-15T07:46:33;49183.91;;;-144.47;95.21
31585;BME280;18191;51.288;12.390;2023-02-15T07:51:24;49171.97;;;-144.47;95.23
31585;BME280;18191;51.288;12.390;2023-02-15T07:56:14;49148.09;;;-144.47;95.06
31585;BME280;18191;51.288;12.390;2023-02-15T08:01:04;49191.84;;;-144.47;95.16
31585;BME280;18191;51.288;12.390;2023-02-15T08:05:55;49175.94;;;-144.47;94.08
31585;BME280;18191;51.288;12.390;2023-02-15T08:10:46;49189.88;;;-144.47;94.09
31585;BME280;18191;51.288;12.390;2023-02-15T08:15:55;49148.09;;;-144.47;94.38
31585;BME280;18191;51.288;12.390;2023-02-15T08:20:48;49148.09;;;-144.47;93.32
31585;BME280;18191;51.288;12.390;2023-02-15T08:25:38;49164.00;;;-144.47;92.97
31585;BME280;18191;51.288;12.390;2023-02-15T08:30:29;49140.13;;;-144.47;92.02
31585;BME280;18191;51.288;12.390;2023-02-15T08:35:19;49183.91;;;-144.47;91.97
31585;BME280;18191;51.288;12.390;2023-02-15T08:40:09;49179.91;;;-144.47;90.48
31585;BME280;18191;51.288;12.390;2023-02-15T08:44:59;49148.09;;;-144.47;90.08
31585;BME280;18191;51.288;12.390;2023-02-15T08:49:50;49175.94;;;-144.47;89.34
31585;BME280;18191;51.288;12.390;2023-02-15T08:54:41;49162.00;;;-144.47;89.35
31585;BME280;18191;51.288;12.390;2023-02-15T08:59:31;49154.06;;;-144.47;88.47
31585;BME280;18191;51.288;12.390;2023-02-15T09:04:21;49223.69;;;-144.47;87.24
31585;BME280;18191;51.288;12.390;2023-02-15T09:09:12;49171.97;;;-144.47;86.94
31585;BME280;18191;51.288;12.390;2023-02-15T09:14:06;49187.88;;;-144.47;84.85
31585;BME280;18191;51.288;12.390;2023-02-15T09:18:58;49235.63;;;-144.47;84.08
31585;BME280;18191;51.288;12.390;2023-02-15T09:23:49;49164.00;;;-144.47;83.17
31585;BME280;18191;51.288;12.390;2023-02-15T09:28:39;49146.09;;;-144.47;82.77
31585;BME280;18191;51.288;12.390;2023-02-15T09:33:29;49164.00;;;-144.47;80.65
31585;BME280;18191;51.288;12.390;2023-02-15T09:38:21;49183.91;;;-144.47;78.68
31585;BME280;18191;51.288;12.390;2023-02-15T09:43:17;49175.94;;;-144.47;77.76
31585;BME280;18191;51.288;12.390;2023-02-15T09:48:34;49179.91;;;-144.47;75.51
31585;BME280;18191;51.288;12.390;2023-02-15T10:03:34;49152.06;;;-144.47;71.23
31585;BME280;18191;51.288;12.390;2023-02-15T10:13:34;49160.03;;;-144.47;67.06
31585;BME280;18191;51.288;12.390;2023-02-15T10:18:39;49162.00;;;-144.47;64.92
31585;BME280;18191;51.288;12.390;2023-02-15T10:23:52;49203.78;;;-144.47;64.59
31585;BME280;18191;51.288;12.390;2023-02-15T10:28:50;49132.16;;;-144.47;62.82
31585;BME280;18191;51.288;12.390;2023-02-15T10:33:42;49146.09;;;-144.47;61.88
31585;BME280;18191;51.288;12.390;2023-02-15T10:38:40;49120.25;;;-144.47;60.16
31585;BME280;18191;51.288;12.390;2023-02-15T10:49:00;49164.00;;;-144.47;59.22
31585;BME280;18191;51.288;12.390;2023-02-15T10:58:51;49148.09;;;-144.47;59.07
31585;BME280;18191;51.288;12.390;2023-02-15T11:04:02;49130.19;;;-144.47;57.55
31585;BME280;18191;51.288;12.390;2023-02-15T11:08:56;49108.31;;;-144.47;56.44
31585;BME280;18191;51.288;12.390;2023-02-15T11:13:50;49175.94;;;-144.47;57.64
31585;BME280;18191;51.288;12.390;2023-02-15T11:18:45;49136.16;;;-144.47;54.08
31585;BME280;18191;51.288;12.390;2023-02-15T11:23:40;49152.06;;;-144.47;54.39
31585;BME280;18191;51.288;12.390;2023-02-15T11:28:33;49124.22;;;-144.47;52.48
31585;BME280;18191;51.288;12.390;2023-02-15T11:33:28;49183.91;;;-144.47;53.62
31585;BME280;18191;51.288;12.390;2023-02-15T11:38:23;49144.09;;;-144.47;51.02
31585;BME280;18191;51.288;12.390;2023-02-15T11:43:23;49108.31;;;-144.47;50.58
31585;BME280;18191;51.288;12.390;2023-02-15T11:48:16;49148.09;;;-144.47;51.09
31585;BME280;18191;51.288;12.390;2023-02-15T11:53:18;49142.13;;;-144.47;50.42
31585;BME280;18191;51.288;12.390;2023-02-15T11:58:16;49128.19;;;-144.47;49.67
31585;BME280;18191;51.288;12.390;2023-02-15T12:03:16;49138.16;;;-144.47;49.58
31585;BME280;18191;51.288;12.390;2023-02-15T12:08:10;49094.38;;;-144.47;50.44
31585;BME280;18191;51.288;12.390;2023-02-15T12:13:15;49120.25;;;-144.47;48.79
31585;BME280;18191;51.288;12.390;2023-02-15T12:18:15;49167.97;;;-144.47;47.65
31585;BME280;18191;51.288;12.390;2023-02-15T12:23:12;49128.19;;;-144.47;46.30
31585;BME280;18191;51.288;12.390;2023-02-15T12:28:03;49106.31;;;-144.47;46.82
31585;BME280;18191;51.288;12.390;2023-02-15T12:32:54;49144.09;;;-144.47;48.88
31585;BME280;18191;51.288;12.390;2023-02-15T12:37:53;49132.16;;;-144.47;45.85
31585;BME280;18191;51.288;12.390;2023-02-15T12:42:45;49173.94;;;-144.47;45.51
31585;BME280;18191;51.288;12.390;2023-02-15T12:47:35;49096.38;;;-144.47;46.95
31585;BME280;18191;51.288;12.390;2023-02-15T12:52:25;49120.25;;;-144.47;48.11
31585;BME280;18191;51.288;12.390;2023-02-15T13:02:26;49122.22;;;-144.47;47.38
31585;BME280;18191;51.288;12.390;2023-02-15T13:07:17;49124.22;;;-144.47;47.99
31585;BME280;18191;51.288;12.390;2023-02-15T13:12:18;49124.22;;;-144.47;47.60
31585;BME280;18191;51.288;12.390;2023-02-15T13:17:09;49160.03;;;-144.47;47.17
31585;BME280;18191;51.288;12.390;2023-02-15T13:22:02;49136.16;;;-144.47;47.51
31585;BME280;18191;51.288;12.390;2023-02-15T13:26:56;49094.38;;;-144.47;47.56
31585;BME280;18191;51.288;12.390;2023-02-15T13:31:47;49120.25;;;-144.47;47.68
31585;BME280;18191;51.288;12.390;2023-02-15T13:36:44;49179.91;;;-144.47;47.59
31585;BME280;18191;51.288;12.390;2023-02-15T13:41:50;49160.03;;;-144.47;45.88
31585;BME280;18191;51.288;12.390;2023-02-15T13:46:45;49122.22;;;-144.47;47.16
31585;BME280;18191;51.288;12.390;2023-02-15T13:51:58;49152.06;;;-144.47;44.91
31585;BME280;18191;51.288;12.390;2023-02-15T13:57:13;49134.16;;;-144.47;43.81
31585;BME280;18191;51.288;12.390;2023-02-15T14:07:28;49148.09;;;-144.47;41.78
31585;BME280;18191;51.288;12.390;2023-02-15T14:17:24;49120.25;;;-144.47;41.88
31585;BME280;18191;51.288;12.390;2023-02-15T14:22:26;49114.28;;;-144.47;41.48
31585;BME280;18191;51.288;12.390;2023-02-15T14:27:23;49082.44;;;-144.47;42.79
31585;BME280;18191;51.288;12.390;2023-02-15T14:32:18;49092.38;;;-144.47;40.96
31585;BME280;18191;51.288;12.390;2023-02-15T14:37:10;49140.13;;;-144.47;38.23
31585;BME280;18191;51.288;12.390;2023-02-15T14:42:11;49162.00;;;-144.47;40.00
31585;BME280;18191;51.288;12.390;2023-02-15T14:47:09;49118.25;;;-144.47;40.50
31585;BME280;18191;51.288;12.390;2023-02-15T14:52:02;49104.31;;;-144.47;40.03
31585;BME280;18191;51.288;12.390;2023-02-15T15:01:55;49128.19;;;-144.47;40.86
31585;BME280;18191;51.288;12.390;2023-02-15T15:06:56;49116.25;;;-144.47;40.88
31585;BME280;18191;51.288;12.390;2023-02-15T15:11:49;49142.13;;;-144.47;41.45
31585;BME280;18191;51.288;12.390;2023-02-15T15:16:46;49164.00;;;-144.47;42.14
31585;BME280;18191;51.288;12.390;2023-02-15T15:26:36;49132.16;;;-144.47;45.21
31585;BME280;18191;51.288;12.390;2023-02-15T15:31:32;49148.09;;;-144.47;45.82
31585;BME280;18191;51.288;12.390;2023-02-15T15:36:35;49116.25;;;-144.47;46.89
31585;BME280;18191;51.288;12.390;2023-02-15T15:51:40;49185.88;;;-144.47;48.16
31585;BME280;18191;51.288;12.390;2023-02-15T15:56:32;49128.19;;;-144.47;50.12
31585;BME280;18191;51.288;12.390;2023-02-15T16:01:24;49148.09;;;-144.47;55.31
31585;BME280;18191;51.288;12.390;2023-02-15T16:06:25;49142.13;;;-144.47;57.60
31585;BME280;18191;51.288;12.390;2023-02-15T16:11:17;49164.00;;;-144.47;59.83
31585;BME280;18191;51.288;12.390;2023-02-15T16:16:09;49175.94;;;-144.47;61.26
31585;BME280;18191;51.288;12.390;2023-02-15T16:21:01;49140.13;;;-144.47;63.57
31585;BME280;18191;51.288;12.390;2023-02-15T16:25:55;49183.91;;;-144.47;65.94
31585;BME280;18191;51.288;12.390;2023-02-15T16:36:13;49195.84;;;-144.47;68.63
31585;BME280;18191;51.288;12.390;2023-02-15T16:41:09;49207.78;;;-144.47;68.96
31585;BME280;18191;51.288;12.390;2023-02-15T16:46:04;49175.94;;;-144.47;69.16
31585;BME280;18191;51.288;12.390;2023-02-15T16:50:55;49181.91;;;-144.47;68.66
31585;BME280;18191;51.288;12.390;2023-02-15T16:55:47;49207.78;;;-144.47;70.07
31585;BME280;18191;51.288;12.390;2023-02-15T17:00:39;49175.94;;;-144.47;70.52
31585;BME280;18191;51.288;12.390;2023-02-15T17:05:40;49219.72;;;-144.47;70.49
31585;BME280;18191;51.288;12.390;2023-02-15T17:10:33;49203.78;;;-144.47;72.27
31585;BME280;18191;51.288;12.390;2023-02-15T17:15:27;49207.78;;;-144.47;72.85
31585;BME280;18191;51.288;12.390;2023-02-15T17:20:17;49175.94;;;-144.47;73.81
31585;BME280;18191;51.288;12.390;2023-02-15T17:25:16;49211.75;;;-144.47;74.63
31585;BME280;18191;51.288;12.390;2023-02-15T17:30:15;49160.03;;;-144.47;74.89
31585;BME280;18191;51.288;12.390;2023-02-15T17:35:20;49227.66;;;-144.47;74.91
31585;BME280;18191;51.288;12.390;2023-02-15T17:45:10;49191.84;;;-144.47;74.52
31585;BME280;18191;51.288;12.390;2023-02-15T17:50:01;49171.97;;;-144.47;75.97
31585;BME280;18191;51.288;12.390;2023-02-15T17:54:52;49171.97;;;-144.47;76.57
31585;BME280;18191;51.288;12.390;2023-02-15T18:00:01;49183.91;;;-144.47;76.37
31585;BME280;18191;51.288;12.390;2023-02-15T18:05:13;49193.84;;;-144.47;76.51
31585;BME280;18191;51.288;12.390;2023-02-15T18:10:22;49207.78;;;-144.47;76.22
31585;BME280;18191;51.288;12.390;2023-02-15T18:15:31;49171.97;;;-144.47;76.93
31585;BME280;18191;51.288;12.390;2023-02-15T18:20:23;49167.97;;;-144.47;77.15
31585;BME280;18191;51.288;12.390;2023-02-15T18:25:14;49171.97;;;-144.47;78.18
31585;BME280;18191;51.288;12.390;2023-02-15T18:30:06;49166.00;;;-144.47;78.37
31585;BME280;18191;51.288;12.390;2023-02-15T18:34:57;49162.00;;;-144.47;78.54
31585;BME280;18191;51.288;12.390;2023-02-15T18:39:48;49195.84;;;-144.47;79.09
31585;BME280;18191;51.288;12.390;2023-02-15T18:44:39;49207.78;;;-144.47;79.13
31585;BME280;18191;51.288;12.390;2023-02-15T18:49:29;49148.09;;;-144.47;79.75
31585;BME280;18191;51.288;12.390;2023-02-15T18:54:23;49167.97;;;-144.47;79.97
31585;BME280;18191;51.288;12.390;2023-02-15T18:59:14;49173.94;;;-144.47;80.61
31585;BME280;18191;51.288;12.390;2023-02-15T19:04:05;49148.09;;;-144.47;80.65
31585;BME280;18191;51.288;12.390;2023-02-15T19:08:55;49173.94;;;-144.47;80.88
31585;BME280;18191;51.288;12.390;2023-02-15T19:13:45;49183.91;;;-144.47;80.99
31585;BME280;18191;51.288;12.390;2023-02-15T19:18:39;49207.78;;;-144.47;81.30
31585;BME280;18191;51.288;12.390;2023-02-15T19:23:29;49205.78;;;-144.47;81.69
31585;BME280;18191;51.288;12.390;2023-02-15T19:28:22;49154.06;;;-144.47;82.37
31585;BME280;18191;51.288;12.390;2023-02-15T19:33:16;49189.88;;;-144.47;81.99
31585;BME280;18191;51.288;12.390;2023-02-15T19:38:07;49142.13;;;-144.47;81.95
31585;BME280;18191;51.288;12.390;2023-02-15T19:43:05;49195.84;;;-144.47;82.42
31585;BME280;18191;51.288;12.390;2023-02-15T19:48:04;49213.75;;;-144.47;81.85
31585;BME280;18191;51.288;12.390;2023-02-15T19:52:55;49191.84;;;-144.47;81.91
31585;BME280;18191;51.288;12.390;2023-02-15T19:57:47;49219.72;;;-144.47;81.20
31585;BME280;18191;51.288;12.390;2023-02-15T20:02:37;49203.78;;;-144.47;80.52
31585;BME280;18191;51.288;12.390;2023-02-15T20:07:27;49173.94;;;-144.47;79.52
31585;BME280;18191;51.288;12.390;2023-02-15T20:12:19;49166.00;;;-144.47;78.96
31585;BME280;18191;51.288;12.390;2023-02-15T20:17:09;49179.91;;;-144.47;79.53
31585;BME280;18191;51.288;12.390;2023-02-15T20:21:59;49164.00;;;-144.47;79.43
31585;BME280;18191;51.288;12.390;2023-02-15T20:26:50;49171.97;;;-144.47;78.60
31585;BME280;18191;51.288;12.390;2023-02-15T20:31:40;49175.94;;;-144.47;78.93
31585;BME280;18191;51.288;12.390;2023-02-15T20:36:31;49156.03;;;-144.47;79.75
31585;BME280;18191;51.288;12.390;2023-02-15T20:41:22;49132.16;;;-144.47;80.45
31585;BME280;18191;51.288;12.390;2023-02-15T20:46:36;49160.03;;;-144.47;80.61
31585;BME280;18191;51.288;12.390;2023-02-15T20:51:26;49183.91;;;-144.47;80.09
31585;BME280;18191;51.288;12.390;2023-02-15T20:56:18;49177.94;;;-144.47;79.99
31585;BME280;18191;51.288;12.390;2023-02-15T21:01:09;49171.97;;;-144.47;80.05
31585;BME280;18191;51.288;12.390;2023-02-15T21:06:00;49183.91;;;-144.47;80.05
31585;BME280;18191;51.288;12.390;2023-02-15T21:10:51;49183.91;;;-144.47;79.80
31585;BME280;18191;51.288;12.390;2023-02-15T21:15:41;49148.09;;;-144.47;80.07
31585;BME280;18191;51.288;12.390;2023-02-15T21:20:32;49179.91;;;-144.47;80.81
31585;BME280;18191;51.288;12.390;2023-02-15T21:25:26;49167.97;;;-144.47;80.88
31585;BME280;18191;51.288;12.390;2023-02-15T21:30:18;49160.03;;;-144.47;82.01
31585;BME280;18191;51.288;12.390;2023-02-15T21:35:10;49128.19;;;-144.47;82.71
31585;BME280;18191;51.288;12.390;2023-02-15T21:40:02;49167.97;;;-144.47;82.98
31585;BME280;18191;51.288;12.390;2023-02-15T21:44:55;49173.94;;;-144.47;82.96
31585;BME280;18191;51.288;12.390;2023-02-15T21:50:05;49191.84;;;-144.47;83.84
31585;BME280;18191;51.288;12.390;2023-02-15T21:55:15;49138.16;;;-144.47;83.94
31585;BME280;18191;51.288;12.390;2023-02-15T22:00:08;49195.84;;;-144.47;84.48
31585;BME280;18191;51.288;12.390;2023-02-15T22:05:04;49167.97;;;-144.47;84.43
31585;BME280;18191;51.288;12.390;2023-02-15T22:09:55;49156.03;;;-144.47;84.61
31585;BME280;18191;51.288;12.390;2023-02-15T22:14:48;49179.91;;;-144.47;84.22
31585;BME280;18191;51.288;12.390;2023-02-15T22:19:39;49185.88;;;-144.47;84.33
31585;BME280;18191;51.288;12.390;2023-02-15T22:24:29;49160.03;;;-144.47;84.60
31585;BME280;18191;51.288;12.390;2023-02-15T22:29:19;49160.03;;;-144.47;84.97
31585;BME280;18191;51.288;12.390;2023-02-15T22:34:18;49195.84;;;-144.47;84.75
31585;BME280;18191;51.288;12.390;2023-02-15T22:39:12;49146.09;;;-144.47;84.85
31585;BME280;18191;51.288;12.390;2023-02-15T22:44:02;49211.75;;;-144.47;84.87
31585;BME280;18191;51.288;12.390;2023-02-15T22:48:53;49148.09;;;-144.47;84.74
31585;BME280;18191;51.288;12.390;2023-02-15T22:53:43;49167.97;;;-144.47;84.77
31585;BME280;18191;51.288;12.390;2023-02-15T22:58:33;49148.09;;;-144.47;84.83
31585;BME280;18191;51.288;12.390;2023-02-15T23:03:24;49167.97;;;-144.47;85.66
31585;BME280;18191;51.288;12.390;2023-02-15T23:08:15;49195.84;;;-144.47;85.81
31585;BME280;18191;51.288;12.390;2023-02-15T23:13:13;49156.03;;;-144.47;86.28
31585;BME280;18191;51.288;12.390;2023-02-15T23:18:17;49150.06;;;-144.47;85.91
31585;BME280;18191;51.288;12.390;2023-02-15T23:23:11;49179.91;;;-144.47;85.82
31585;BME280;18191;51.288;12.390;2023-02-15T23:28:03;49173.94;;;-144.47;85.77
31585;BME280;18191;51.288;12.390;2023-02-15T23:32:53;49148.09;;;-144.47;85.28
31585;BME280;18191;51.288;12.390;2023-02-15T23:37:45;49096.38;;;-144.47;85.59
31585;BME280;18191;51.288;12.390;2023-02-15T23:42:35;49177.94;;;-144.47;85.59
31585;BME280;18191;51.288;12.390;2023-02-15T23:47:26;49197.81;;;-144.47;84.81
31585;BME280;18191;51.288;12.390;2023-02-15T23:52:36;49167.97;;;-144.47;84.46
31585;BME280;18191;51.288;12.390;2023-02-15T23:57:26;49193.84;;;-144.47;84.10
